sensor_id;sensor_type;location;lat;lon;timestamp;temperature;humidity
71754;DHT22;59593;51.716;7.016;2023-03-22T00:00:44;11.30;99.90
71754;DHT22;59593;51.716;7.016;2023-03-22T00:03:09;11.40;99.90
71754;DHT22;59593;51.716;7.016;2023-03-22T00:05:35;11.40;99.90
71754;DHT22;59593;51.716;7.016;2023-03-22T00:08:01;11.30;99.90
71754;DHT22;59593;51.716;7.016;2023-03-22T00:10:30;11.30;99.90
71754;DHT22;59593;51.716;7.016;2023-03-22T00:12:56;11.30;99.90
71754;DHT22;59593;51.716;7.016;2023-03-22T00:15:22;11.30;99.90
71754;DHT22;59593;51.716;7.016;2023-03-22T00:17:48;11.20;99.90
71754;DHT22;59593;51.716;7.016;2023-03-22T00:20:17;11.30;99.90
71754;DHT22;59593;51.716;7.016;2023-03-22T00:22:45;11.20;99.90
71754;DHT22;59593;51.716;7.016;2023-03-22T00:25:11;11.20;99.90
71754;DHT22;59593;51.716;7.016;2023-03-22T00:27:37;11.20;99.90
71754;DHT22;59593;51.716;7.016;2023-03-22T00:30:03;11.20;99.90
71754;DHT22;59593;51.716;7.016;2023-03-22T00:32:33;11.30;99.90
71754;DHT22;59593;51.716;7.016;2023-03-22T00:35:00;11.30;99.90
71754;DHT22;59593;51.716;7.016;2023-03-22T00:37:26;11.30;99.90
71754;DHT22;59593;51.716;7.016;2023-03-22T00:40:01;11.30;99.90
71754;DHT22;59593;51.716;7.016;2023-03-22T00:42:29;11.30;99.90
71754;DHT22;59593;51.716;7.016;2023-03-22T00:44:54;11.30;99.90
71754;DHT22;59593;51.716;7.016;2023-03-22T00:47:20;11.30;99.90
71754;DHT22;59593;51.716;7.016;2023-03-22T00:49:46;11.20;99.90
71754;DHT22;59593;51.716;7.016;2023-03-22T00:52:11;11.20;99.90
71754;DHT22;59593;51.716;7.016;2023-03-22T00:54:37;11.20;99.90
71754;DHT22;59593;51.716;7.016;2023-03-22T00:57:02;11.20;99.90
71754;DHT22;59593;51.716;7.016;2023-03-22T00:59:28;11.20;99.90
71754;DHT22;59593;51.716;7.016;2023-03-22T01:01:54;11.10;99.90
71754;DHT22;59593;51.716;7.016;2023-03-22T01:04:21;11.00;99.90
71754;DHT22;59593;51.716;7.016;2023-03-22T01:06:53;11.00;99.90
71754;DHT22;59593;51.716;7.016;2023-03-22T01:09:26;11.00;99.90
71754;DHT22;59593;51.716;7.016;2023-03-22T01:11:54;11.00;99.90
71754;DHT22;59593;51.716;7.016;2023-03-22T01:14:21;11.00;99.90
71754;DHT22;59593;51.716;7.016;2023-03-22T01:16:47;11.00;99.90
71754;DHT22;59593;51.716;7.016;2023-03-22T01:19:12;11.00;99.90
71754;DHT22;59593;51.716;7.016;2023-03-22T01:21:38;11.00;99.90
71754;DHT22;59593;51.716;7.016;2023-03-22T01:24:04;11.00;99.90
71754;DHT22;59593;51.716;7.016;2023-03-22T01:26:30;11.00;99.90
71754;DHT22;59593;51.716;7.016;2023-03-22T01:28:55;11.00;99.90
71754;DHT22;59593;51.716;7.016;2023-03-22T01:31:21;11.10;99.90
71754;DHT22;59593;51.716;7.016;2023-03-22T01:33:46;11.10;99.90
71754;DHT22;59593;51.716;7.016;2023-03-22T01:36:12;11.10;99.90
71754;DHT22;59593;51.716;7.016;2023-03-22T01:38:38;11.10;99.90
71754;DHT22;59593;51.716;7.016;2023-03-22T01:41:03;11.20;99.90
71754;DHT22;59593;51.716;7.016;2023-03-22T01:43:29;11.20;99.90
71754;DHT22;59593;51.716;7.016;2023-03-22T01:45:55;11.20;99.90
71754;DHT22;59593;51.716;7.016;2023-03-22T01:48:25;11.20;99.90
71754;DHT22;59593;51.716;7.016;2023-03-22T01:51:12;11.20;99.90
71754;DHT22;59593;51.716;7.016;2023-03-22T01:53:45;11.30;99.90
71754;DHT22;59593;51.716;7.016;2023-03-22T01:56:12;11.20;99.90
71754;DHT22;59593;51.716;7.016;2023-03-22T01:58:39;11.20;99.90
71754;DHT22;59593;51.716;7.016;2023-03-22T02:01:07;11.20;99.90
71754;DHT22;59593;51.716;7.016;2023-03-22T02:03:53;11.20;99.90
71754;DHT22;59593;51.716;7.016;2023-03-22T02:06:20;11.20;99.90
71754;DHT22;59593;51.716;7.016;2023-03-22T02:08:47;11.10;99.90
71754;DHT22;59593;51.716;7.016;2023-03-22T02:11:17;11.00;99.90
71754;DHT22;59593;51.716;7.016;2023-03-22T02:13:56;11.10;99.90
71754;DHT22;59593;51.716;7.016;2023-03-22T02:27:30;11.00;99.90
71754;DHT22;59593;51.716;7.016;2023-03-22T02:30:17;11.10;99.90
71754;DHT22;59593;51.716;7.016;2023-03-22T02:35:45;11.10;99.90
71754;DHT22;59593;51.716;7.016;2023-03-22T02:47:04;11.00;99.90
71754;DHT22;59593;51.716;7.016;2023-03-22T02:49:36;11.00;99.90
71754;DHT22;59593;51.716;7.016;2023-03-22T02:52:16;10.90;99.90
71754;DHT22;59593;51.716;7.016;2023-03-22T03:00:02;10.90;99.90
71754;DHT22;59593;51.716;7.016;2023-03-22T03:02:35;10.90;99.90
71754;DHT22;59593;51.716;7.016;2023-03-22T03:05:01;10.90;99.90
71754;DHT22;59593;51.716;7.016;2023-03-22T03:07:28;10.90;99.90
71754;DHT22;59593;51.716;7.016;2023-03-22T03:09:55;11.00;99.90
71754;DHT22;59593;51.716;7.016;2023-03-22T03:12:23;11.00;99.90
71754;DHT22;59593;51.716;7.016;2023-03-22T03:14:49;10.90;99.90
71754;DHT22;59593;51.716;7.016;2023-03-22T03:20:20;10.80;99.90
71754;DHT22;59593;51.716;7.016;2023-03-22T03:22:55;10.80;99.90
71754;DHT22;59593;51.716;7.016;2023-03-22T03:25:35;10.80;99.90
71754;DHT22;59593;51.716;7.016;2023-03-22T03:30:48;10.70;99.90
71754;DHT22;59593;51.716;7.016;2023-03-22T03:33:19;10.80;99.90
71754;DHT22;59593;51.716;7.016;2023-03-22T03:35:57;10.70;99.90
71754;DHT22;59593;51.716;7.016;2023-03-22T03:38:28;10.80;99.90
71754;DHT22;59593;51.716;7.016;2023-03-22T03:41:05;10.80;99.90
71754;DHT22;59593;51.716;7.016;2023-03-22T03:43:32;10.70;99.90
71754;DHT22;59593;51.716;7.016;2023-03-22T03:45:59;10.70;99.90
71754;DHT22;59593;51.716;7.016;2023-03-22T03:48:30;10.70;99.90
71754;DHT22;59593;51.716;7.016;2023-03-22T03:50:57;10.80;99.90
71754;DHT22;59593;51.716;7.016;2023-03-22T03:53:23;10.70;99.90
71754;DHT22;59593;51.716;7.016;2023-03-22T03:55:49;10.70;99.90
71754;DHT22;59593;51.716;7.016;2023-03-22T03:58:15;10.60;99.90
71754;DHT22;59593;51.716;7.016;2023-03-22T04:00:41;10.70;99.90
71754;DHT22;59593;51.716;7.016;2023-03-22T04:03:07;10.60;99.90
71754;DHT22;59593;51.716;7.016;2023-03-22T04:05:33;10.60;99.90
71754;DHT22;59593;51.716;7.016;2023-03-22T04:07:58;10.60;99.90
71754;DHT22;59593;51.716;7.016;2023-03-22T04:10:24;10.70;99.90
71754;DHT22;59593;51.716;7.016;2023-03-22T04:12:50;10.60;99.90
71754;DHT22;59593;51.716;7.016;2023-03-22T04:15:15;10.60;99.90
71754;DHT22;59593;51.716;7.016;2023-03-22T04:17:41;10.50;99.90
71754;DHT22;59593;51.716;7.016;2023-03-22T04:20:08;10.60;99.90
71754;DHT22;59593;51.716;7.016;2023-03-22T04:22:36;10.60;99.90
71754;DHT22;59593;51.716;7.016;2023-03-22T04:25:03;10.50;99.90
71754;DHT22;59593;51.716;7.016;2023-03-22T04:27:29;10.60;99.90
71754;DHT22;59593;51.716;7.016;2023-03-22T04:29:55;10.60;99.90
71754;DHT22;59593;51.716;7.016;2023-03-22T04:32:21;10.60;99.90
71754;DHT22;59593;51.716;7.016;2023-03-22T04:34:51;10.50;99.90
71754;DHT22;59593;51.716;7.016;2023-03-22T04:37:17;10.60;99.90
71754;DHT22;59593;51.716;7.016;2023-03-22T04:39:44;10.50;99.90
71754;DHT22;59593;51.716;7.016;2023-03-22T04:42:10;10.60;99.90
71754;DHT22;59593;51.716;7.016;2023-03-22T04:44:36;10.60;99.90
71754;DHT22;59593;51.716;7.016;2023-03-22T04:47:02;10.60;99.90
71754;DHT22;59593;51.716;7.016;2023-03-22T04:49:27;10.60;99.90
71754;DHT22;59593;51.716;7.016;2023-03-22T04:51:54;10.50;99.90
71754;DHT22;59593;51.716;7.016;2023-03-22T04:54:21;10.50;99.90
71754;DHT22;59593;51.716;7.016;2023-03-22T04:56:46;10.50;99.90
71754;DHT22;59593;51.716;7.016;2023-03-22T04:59:12;10.40;99.90
71754;DHT22;59593;51.716;7.016;2023-03-22T05:01:38;10.50;99.90
71754;DHT22;59593;51.716;7.016;2023-03-22T05:04:07;10.50;99.90
71754;DHT22;59593;51.716;7.016;2023-03-22T05:06:32;10.40;99.90
71754;DHT22;59593;51.716;7.016;2023-03-22T05:08:59;10.40;99.90
71754;DHT22;59593;51.716;7.016;2023-03-22T05:11:25;10.40;99.90
71754;DHT22;59593;51.716;7.016;2023-03-22T05:13:53;10.30;99.90
71754;DHT22;59593;51.716;7.016;2023-03-22T05:16:19;10.20;99.90
71754;DHT22;59593;51.716;7.016;2023-03-22T05:18:45;10.30;99.90
71754;DHT22;59593;51.716;7.016;2023-03-22T05:21:12;10.40;99.90
71754;DHT22;59593;51.716;7.016;2023-03-22T05:23:40;10.40;99.90
71754;DHT22;59593;51.716;7.016;2023-03-22T05:26:06;10.30;99.90
71754;DHT22;59593;51.716;7.016;2023-03-22T05:28:33;10.20;99.90
71754;DHT22;59593;51.716;7.016;2023-03-22T05:31:00;10.30;99.90
71754;DHT22;59593;51.716;7.016;2023-03-22T05:33:26;10.30;99.90
71754;DHT22;59593;51.716;7.016;2023-03-22T05:35:54;10.30;99.90
71754;DHT22;59593;51.716;7.016;2023-03-22T05:38:20;10.30;99.90
71754;DHT22;59593;51.716;7.016;2023-03-22T05:40:49;10.30;99.90
71754;DHT22;59593;51.716;7.016;2023-03-22T05:43:15;10.30;99.90
71754;DHT22;59593;51.716;7.016;2023-03-22T05:45:41;10.30;99.90
71754;DHT22;59593;51.716;7.016;2023-03-22T05:48:07;10.30;99.90
71754;DHT22;59593;51.716;7.016;2023-03-22T05:50:33;10.30;99.90
71754;DHT22;59593;51.716;7.016;2023-03-22T05:52:59;10.40;99.90
71754;DHT22;59593;51.716;7.016;2023-03-22T05:55:25;10.40;99.90
71754;DHT22;59593;51.716;7.016;2023-03-22T05:57:50;10.50;99.90
71754;DHT22;59593;51.716;7.016;2023-03-22T06:00:19;10.50;99.90
71754;DHT22;59593;51.716;7.016;2023-03-22T06:02:47;10.60;99.90
71754;DHT22;59593;51.716;7.016;2023-03-22T06:05:14;10.70;99.90
71754;DHT22;59593;51.716;7.016;2023-03-22T06:07:41;10.70;99.90
71754;DHT22;59593;51.716;7.016;2023-03-22T06:10:10;10.80;99.90
71754;DHT22;59593;51.716;7.016;2023-03-22T06:12:36;10.80;99.90
71754;DHT22;59593;51.716;7.016;2023-03-22T06:15:02;10.80;99.90
71754;DHT22;59593;51.716;7.016;2023-03-22T06:17:28;10.90;99.90
71754;DHT22;59593;51.716;7.016;2023-03-22T06:19:54;10.90;99.90
71754;DHT22;59593;51.716;7.016;2023-03-22T06:22:20;10.80;99.90
71754;DHT22;59593;51.716;7.016;2023-03-22T06:24:46;10.90;99.90
71754;DHT22;59593;51.716;7.016;2023-03-22T06:27:12;10.90;99.90
71754;DHT22;59593;51.716;7.016;2023-03-22T06:29:38;11.00;99.90
71754;DHT22;59593;51.716;7.016;2023-03-22T06:32:03;11.10;99.90
71754;DHT22;59593;51.716;7.016;2023-03-22T06:34:29;11.20;99.90
71754;DHT22;59593;51.716;7.016;2023-03-22T06:36:55;11.20;99.90
71754;DHT22;59593;51.716;7.016;2023-03-22T06:39:21;11.20;99.90
71754;DHT22;59593;51.716;7.016;2023-03-22T06:41:46;11.20;99.90
71754;DHT22;59593;51.716;7.016;2023-03-22T06:44:13;11.20;99.90
71754;DHT22;59593;51.716;7.016;2023-03-22T06:46:39;11.20;99.90
71754;DHT22;59593;51.716;7.016;2023-03-22T06:49:04;11.30;99.90
71754;DHT22;59593;51.716;7.016;2023-03-22T06:51:30;11.30;99.90
71754;DHT22;59593;51.716;7.016;2023-03-22T06:53:56;11.30;99.90
71754;DHT22;59593;51.716;7.016;2023-03-22T06:56:22;11.40;99.90
71754;DHT22;59593;51.716;7.016;2023-03-22T06:58:48;11.50;99.90
71754;DHT22;59593;51.716;7.016;2023-03-22T07:01:17;11.50;99.90
71754;DHT22;59593;51.716;7.016;2023-03-22T07:03:43;11.50;99.90
71754;DHT22;59593;51.716;7.016;2023-03-22T07:06:08;11.50;99.90
71754;DHT22;59593;51.716;7.016;2023-03-22T07:08:34;11.50;99.90
71754;DHT22;59593;51.716;7.016;2023-03-22T07:11:02;11.50;99.90
71754;DHT22;59593;51.716;7.016;2023-03-22T07:13:28;11.50;99.90
71754;DHT22;59593;51.716;7.016;2023-03-22T07:15:55;11.50;99.90
71754;DHT22;59593;51.716;7.016;2023-03-22T07:18:21;11.50;99.90
71754;DHT22;59593;51.716;7.016;2023-03-22T07:20:47;11.60;99.90
71754;DHT22;59593;51.716;7.016;2023-03-22T07:23:12;11.60;99.90
71754;DHT22;59593;51.716;7.016;2023-03-22T07:25:39;11.70;99.90
71754;DHT22;59593;51.716;7.016;2023-03-22T07:28:05;11.80;99.90
71754;DHT22;59593;51.716;7.016;2023-03-22T07:30:31;11.90;99.90
71754;DHT22;59593;51.716;7.016;2023-03-22T07:33:00;11.90;99.90
71754;DHT22;59593;51.716;7.016;2023-03-22T07:35:26;12.00;99.90
71754;DHT22;59593;51.716;7.016;2023-03-22T07:37:51;12.10;99.90
71754;DHT22;59593;51.716;7.016;2023-03-22T07:40:17;12.10;99.90
71754;DHT22;59593;51.716;7.016;2023-03-22T07:42:43;12.20;99.90
71754;DHT22;59593;51.716;7.016;2023-03-22T07:45:09;12.20;99.90
71754;DHT22;59593;51.716;7.016;2023-03-22T07:47:35;12.10;99.90
71754;DHT22;59593;51.716;7.016;2023-03-22T07:50:01;12.10;99.90
71754;DHT22;59593;51.716;7.016;2023-03-22T07:52:26;12.00;99.90
71754;DHT22;59593;51.716;7.016;2023-03-22T07:54:52;12.10;99.90
71754;DHT22;59593;51.716;7.016;2023-03-22T07:57:17;12.10;99.90
71754;DHT22;59593;51.716;7.016;2023-03-22T07:59:43;12.10;99.90
71754;DHT22;59593;51.716;7.016;2023-03-22T08:02:09;12.10;99.90
71754;DHT22;59593;51.716;7.016;2023-03-22T08:04:35;12.10;99.90
71754;DHT22;59593;51.716;7.016;2023-03-22T08:07:01;12.00;99.90
71754;DHT22;59593;51.716;7.016;2023-03-22T08:09:27;12.10;99.90
71754;DHT22;59593;51.716;7.016;2023-03-22T08:11:52;12.10;99.90
71754;DHT22;59593;51.716;7.016;2023-03-22T08:14:18;12.10;99.90
71754;DHT22;59593;51.716;7.016;2023-03-22T08:16:43;12.10;99.90
71754;DHT22;59593;51.716;7.016;2023-03-22T08:19:10;12.20;99.90
71754;DHT22;59593;51.716;7.016;2023-03-22T08:21:36;12.10;99.90
71754;DHT22;59593;51.716;7.016;2023-03-22T08:24:02;12.10;99.90
71754;DHT22;59593;51.716;7.016;2023-03-22T08:26:28;12.10;99.90
71754;DHT22;59593;51.716;7.016;2023-03-22T08:28:54;12.20;99.90
71754;DHT22;59593;51.716;7.016;2023-03-22T08:31:20;12.20;99.90
71754;DHT22;59593;51.716;7.016;2023-03-22T08:33:47;12.30;99.90
71754;DHT22;59593;51.716;7.016;2023-03-22T08:36:16;12.30;99.90
71754;DHT22;59593;51.716;7.016;2023-03-22T08:38:42;12.30;99.90
71754;DHT22;59593;51.716;7.016;2023-03-22T08:41:10;12.20;99.90
71754;DHT22;59593;51.716;7.016;2023-03-22T08:43:36;12.20;99.90
71754;DHT22;59593;51.716;7.016;2023-03-22T08:46:02;12.30;99.90
71754;DHT22;59593;51.716;7.016;2023-03-22T08:48:28;12.20;99.90
71754;DHT22;59593;51.716;7.016;2023-03-22T08:50:55;12.20;99.90
71754;DHT22;59593;51.716;7.016;2023-03-22T08:53:22;12.20;99.90
71754;DHT22;59593;51.716;7.016;2023-03-22T08:55:47;12.30;99.90
71754;DHT22;59593;51.716;7.016;2023-03-22T08:58:31;12.30;99.90
71754;DHT22;59593;51.716;7.016;2023-03-22T09:00:57;12.30;99.90
71754;DHT22;59593;51.716;7.016;2023-03-22T09:03:22;12.40;99.90
71754;DHT22;59593;51.716;7.016;2023-03-22T09:05:49;12.30;99.90
71754;DHT22;59593;51.716;7.016;2023-03-22T09:08:15;12.30;99.90
71754;DHT22;59593;51.716;7.016;2023-03-22T09:10:41;12.40;99.90
71754;DHT22;59593;51.716;7.016;2023-03-22T09:13:06;12.40;99.90
71754;DHT22;59593;51.716;7.016;2023-03-22T09:15:32;12.40;99.90
71754;DHT22;59593;51.716;7.016;2023-03-22T09:17:58;12.50;99.90
71754;DHT22;59593;51.716;7.016;2023-03-22T09:20:23;12.50;99.90
71754;DHT22;59593;51.716;7.016;2023-03-22T09:22:50;12.50;99.90
71754;DHT22;59593;51.716;7.016;2023-03-22T09:25:16;12.50;99.90
71754;DHT22;59593;51.716;7.016;2023-03-22T09:27:42;12.60;99.90
71754;DHT22;59593;51.716;7.016;2023-03-22T09:30:08;12.90;99.90
71754;DHT22;59593;51.716;7.016;2023-03-22T09:32:34;13.10;99.90
71754;DHT22;59593;51.716;7.016;2023-03-22T09:34:59;13.10;99.90
71754;DHT22;59593;51.716;7.016;2023-03-22T09:37:25;13.10;99.90
71754;DHT22;59593;51.716;7.016;2023-03-22T09:39:55;13.20;99.90
71754;DHT22;59593;51.716;7.016;2023-03-22T09:42:28;13.20;99.90
71754;DHT22;59593;51.716;7.016;2023-03-22T09:44:56;13.20;99.90
71754;DHT22;59593;51.716;7.016;2023-03-22T09:47:33;13.20;99.90
71754;DHT22;59593;51.716;7.016;2023-03-22T09:50:07;13.30;99.90
71754;DHT22;59593;51.716;7.016;2023-03-22T09:52:35;13.10;99.90
71754;DHT22;59593;51.716;7.016;2023-03-22T09:55:00;13.10;99.90
71754;DHT22;59593;51.716;7.016;2023-03-22T10:00:32;12.80;99.90
71754;DHT22;59593;51.716;7.016;2023-03-22T10:08:37;12.90;99.90
71754;DHT22;59593;51.716;7.016;2023-03-22T10:11:56;12.90;99.90
71754;DHT22;59593;51.716;7.016;2023-03-22T10:16:51;13.10;99.90
71754;DHT22;59593;51.716;7.016;2023-03-22T10:19:52;13.40;99.90
71754;DHT22;59593;51.716;7.016;2023-03-22T10:22:28;13.60;99.90
71754;DHT22;59593;51.716;7.016;2023-03-22T10:24:55;13.80;99.90
71754;DHT22;59593;51.716;7.016;2023-03-22T10:27:22;14.10;99.90
71754;DHT22;59593;51.716;7.016;2023-03-22T10:30:24;14.10;99.90
71754;DHT22;59593;51.716;7.016;2023-03-22T10:33:00;14.10;99.90
71754;DHT22;59593;51.716;7.016;2023-03-22T10:35:26;14.10;99.90
71754;DHT22;59593;51.716;7.016;2023-03-22T10:37:55;14.10;99.90
71754;DHT22;59593;51.716;7.016;2023-03-22T10:40:30;14.00;99.90
71754;DHT22;59593;51.716;7.016;2023-03-22T10:43:18;13.80;99.90
71754;DHT22;59593;51.716;7.016;2023-03-22T10:45:45;13.90;99.90
71754;DHT22;59593;51.716;7.016;2023-03-22T10:50:45;13.90;99.90
71754;DHT22;59593;51.716;7.016;2023-03-22T10:56:02;14.10;99.90
71754;DHT22;59593;51.716;7.016;2023-03-22T10:58:29;14.00;99.90
71754;DHT22;59593;51.716;7.016;2023-03-22T11:00:58;14.00;99.90
71754;DHT22;59593;51.716;7.016;2023-03-22T11:08:48;14.00;99.90
71754;DHT22;59593;51.716;7.016;2023-03-22T11:16:21;13.90;99.90
71754;DHT22;59593;51.716;7.016;2023-03-22T11:18:48;13.70;99.90
71754;DHT22;59593;51.716;7.016;2023-03-22T11:21:16;13.60;99.90
71754;DHT22;59593;51.716;7.016;2023-03-22T11:23:51;13.50;99.90
71754;DHT22;59593;51.716;7.016;2023-03-22T11:26:26;13.30;99.90
71754;DHT22;59593;51.716;7.016;2023-03-22T11:29:20;13.40;99.90
71754;DHT22;59593;51.716;7.016;2023-03-22T11:34:20;13.50;99.90
71754;DHT22;59593;51.716;7.016;2023-03-22T11:36:47;13.40;99.90
71754;DHT22;59593;51.716;7.016;2023-03-22T11:39:19;13.30;99.90
71754;DHT22;59593;51.716;7.016;2023-03-22T11:41:49;13.20;99.90
71754;DHT22;59593;51.716;7.016;2023-03-22T11:44:17;13.20;99.90
71754;DHT22;59593;51.716;7.016;2023-03-22T11:46:54;13.20;99.90
71754;DHT22;59593;51.716;7.016;2023-03-22T11:49:24;13.10;99.90
71754;DHT22;59593;51.716;7.016;2023-03-22T11:51:52;13.00;99.90
71754;DHT22;59593;51.716;7.016;2023-03-22T11:54:28;12.90;99.90
71754;DHT22;59593;51.716;7.016;2023-03-22T11:56:56;12.80;99.90
71754;DHT22;59593;51.716;7.016;2023-03-22T11:59:25;12.70;99.90
71754;DHT22;59593;51.716;7.016;2023-03-22T12:04:43;12.70;99.90
71754;DHT22;59593;51.716;7.016;2023-03-22T12:07:14;12.50;99.90
71754;DHT22;59593;51.716;7.016;2023-03-22T12:09:48;12.50;99.90
71754;DHT22;59593;51.716;7.016;2023-03-22T12:12:19;12.40;99.90
71754;DHT22;59593;51.716;7.016;2023-03-22T12:15:07;12.50;99.90
71754;DHT22;59593;51.716;7.016;2023-03-22T12:17:44;12.60;99.90
71754;DHT22;59593;51.716;7.016;2023-03-22T12:20:40;12.60;99.90
71754;DHT22;59593;51.716;7.016;2023-03-22T12:23:17;12.60;99.90
71754;DHT22;59593;51.716;7.016;2023-03-22T12:25:55;12.70;99.90
71754;DHT22;59593;51.716;7.016;2023-03-22T12:28:27;12.80;99.90
71754;DHT22;59593;51.716;7.016;2023-03-22T12:30:57;12.90;99.90
71754;DHT22;59593;51.716;7.016;2023-03-22T12:33:45;12.90;99.90
71754;DHT22;59593;51.716;7.016;2023-03-22T12:36:16;12.90;99.90
71754;DHT22;59593;51.716;7.016;2023-03-22T12:38:57;12.80;99.90
71754;DHT22;59593;51.716;7.016;2023-03-22T12:41:31;12.80;99.90
71754;DHT22;59593;51.716;7.016;2023-03-22T12:44:12;12.90;99.90
71754;DHT22;59593;51.716;7.016;2023-03-22T12:46:51;12.90;99.90
71754;DHT22;59593;51.716;7.016;2023-03-22T12:49:26;12.90;99.90
71754;DHT22;59593;51.716;7.016;2023-03-22T12:52:14;13.00;99.90
71754;DHT22;59593;51.716;7.016;2023-03-22T12:54:42;13.00;99.90
71754;DHT22;59593;51.716;7.016;2023-03-22T12:57:09;13.10;99.90
71754;DHT22;59593;51.716;7.016;2023-03-22T12:59:35;13.10;99.90
71754;DHT22;59593;51.716;7.016;2023-03-22T13:09:46;13.20;99.90
71754;DHT22;59593;51.716;7.016;2023-03-22T13:17:43;13.10;99.90
71754;DHT22;59593;51.716;7.016;2023-03-22T13:27:58;13.10;99.90
71754;DHT22;59593;51.716;7.016;2023-03-22T13:30:50;13.00;99.90
71754;DHT22;59593;51.716;7.016;2023-03-22T13:38:41;13.20;99.90
71754;DHT22;59593;51.716;7.016;2023-03-22T13:41:26;13.20;99.90
71754;DHT22;59593;51.716;7.016;2023-03-22T13:43:57;13.30;99.90
71754;DHT22;59593;51.716;7.016;2023-03-22T13:48:50;13.30;99.90
71754;DHT22;59593;51.716;7.016;2023-03-22T13:54:02;13.30;99.90
71754;DHT22;59593;51.716;7.016;2023-03-22T13:56:53;13.30;99.90
71754;DHT22;59593;51.716;7.016;2023-03-22T14:05:06;13.20;99.90
71754;DHT22;59593;51.716;7.016;2023-03-22T14:07:49;13.20;99.90
71754;DHT22;59593;51.716;7.016;2023-03-22T14:15:33;13.20;99.90
71754;DHT22;59593;51.716;7.016;2023-03-22T14:18:11;13.20;99.90
71754;DHT22;59593;51.716;7.016;2023-03-22T14:20:39;13.10;99.90
71754;DHT22;59593;51.716;7.016;2023-03-22T14:23:05;13.20;99.90
71754;DHT22;59593;51.716;7.016;2023-03-22T14:25:33;13.20;99.90
71754;DHT22;59593;51.716;7.016;2023-03-22T14:28:01;13.20;99.90
71754;DHT22;59593;51.716;7.016;2023-03-22T14:30:42;13.20;99.90
71754;DHT22;59593;51.716;7.016;2023-03-22T14:33:17;13.20;99.90
71754;DHT22;59593;51.716;7.016;2023-03-22T14:36:00;13.20;99.90
71754;DHT22;59593;51.716;7.016;2023-03-22T14:38:31;13.20;99.90
71754;DHT22;59593;51.716;7.016;2023-03-22T14:41:17;13.30;99.90
71754;DHT22;59593;51.716;7.016;2023-03-22T14:43:48;13.20;99.90
71754;DHT22;59593;51.716;7.016;2023-03-22T14:46:29;13.40;99.90
71754;DHT22;59593;51.716;7.016;2023-03-22T14:48:58;13.30;99.90
71754;DHT22;59593;51.716;7.016;2023-03-22T14:51:35;13.20;99.90
71754;DHT22;59593;51.716;7.016;2023-03-22T14:54:21;13.30;99.90
71754;DHT22;59593;51.716;7.016;2023-03-22T14:56:51;13.30;99.90
71754;DHT22;59593;51.716;7.016;2023-03-22T14:59:19;13.30;99.90
71754;DHT22;59593;51.716;7.016;2023-03-22T15:01:52;13.30;99.90
71754;DHT22;59593;51.716;7.016;2023-03-22T15:04:20;13.30;99.90
71754;DHT22;59593;51.716;7.016;2023-03-22T15:06:47;13.30;99.90
71754;DHT22;59593;51.716;7.016;2023-03-22T15:09:15;13.40;99.90
71754;DHT22;59593;51.716;7.016;2023-03-22T15:11:42;13.30;99.90
71754;DHT22;59593;51.716;7.016;2023-03-22T15:14:09;13.30;99.90
71754;DHT22;59593;51.716;7.016;2023-03-22T15:16:37;13.40;99.90
71754;DHT22;59593;51.716;7.016;2023-03-22T15:19:06;13.40;99.90
71754;DHT22;59593;51.716;7.016;2023-03-22T15:21:34;13.40;99.90
71754;DHT22;59593;51.716;7.016;2023-03-22T15:26:56;13.40;99.90
71754;DHT22;59593;51.716;7.016;2023-03-22T15:29:27;13.40;99.90
71754;DHT22;59593;51.716;7.016;2023-03-22T15:31:54;13.40;99.90
71754;DHT22;59593;51.716;7.016;2023-03-22T15:34:23;13.40;99.90
71754;DHT22;59593;51.716;7.016;2023-03-22T15:36:49;13.40;99.90
71754;DHT22;59593;51.716;7.016;2023-03-22T15:39:36;13.40;99.90
71754;DHT22;59593;51.716;7.016;2023-03-22T15:42:19;13.40;99.90
71754;DHT22;59593;51.716;7.016;2023-03-22T15:45:01;13.40;99.90
71754;DHT22;59593;51.716;7.016;2023-03-22T15:47:50;13.50;99.90
71754;DHT22;59593;51.716;7.016;2023-03-22T15:50:18;13.50;99.90
71754;DHT22;59593;51.716;7.016;2023-03-22T15:52:55;13.40;99.90
71754;DHT22;59593;51.716;7.016;2023-03-22T15:55:35;13.40;99.90
71754;DHT22;59593;51.716;7.016;2023-03-22T15:58:04;13.40;99.90
71754;DHT22;59593;51.716;7.016;2023-03-22T16:00:35;13.50;99.90
71754;DHT22;59593;51.716;7.016;2023-03-22T16:05:38;13.40;99.90
71754;DHT22;59593;51.716;7.016;2023-03-22T16:08:05;13.50;99.90
71754;DHT22;59593;51.716;7.016;2023-03-22T16:10:33;13.50;99.90
71754;DHT22;59593;51.716;7.016;2023-03-22T16:13:00;13.50;99.90
71754;DHT22;59593;51.716;7.016;2023-03-22T16:15:31;13.50;99.90
71754;DHT22;59593;51.716;7.016;2023-03-22T16:17:57;13.40;99.90
71754;DHT22;59593;51.716;7.016;2023-03-22T16:20:24;13.50;99.90
71754;DHT22;59593;51.716;7.016;2023-03-22T16:22:57;13.50;99.90
71754;DHT22;59593;51.716;7.016;2023-03-22T16:25:23;13.50;99.90
71754;DHT22;59593;51.716;7.016;2023-03-22T16:27:50;13.40;99.90
71754;DHT22;59593;51.716;7.016;2023-03-22T16:30:17;13.40;99.90
71754;DHT22;59593;51.716;7.016;2023-03-22T16:32:44;13.50;99.90
71754;DHT22;59593;51.716;7.016;2023-03-22T16:35:22;13.40;99.90
71754;DHT22;59593;51.716;7.016;2023-03-22T16:37:49;13.40;99.90
71754;DHT22;59593;51.716;7.016;2023-03-22T16:40:21;13.40;99.90
71754;DHT22;59593;51.716;7.016;2023-03-22T16:42:48;13.30;99.90
71754;DHT22;59593;51.716;7.016;2023-03-22T16:45:20;13.30;99.90
71754;DHT22;59593;51.716;7.016;2023-03-22T16:47:47;13.40;99.90
71754;DHT22;59593;51.716;7.016;2023-03-22T16:50:14;13.30;99.90
71754;DHT22;59593;51.716;7.016;2023-03-22T16:52:40;13.30;99.90
71754;DHT22;59593;51.716;7.016;2023-03-22T16:55:18;13.30;99.90
71754;DHT22;59593;51.716;7.016;2023-03-22T16:57:44;13.30;99.90
71754;DHT22;59593;51.716;7.016;2023-03-22T17:00:10;13.30;99.90
71754;DHT22;59593;51.716;7.016;2023-03-22T17:02:37;13.30;99.90
71754;DHT22;59593;51.716;7.016;2023-03-22T17:05:04;13.40;99.90
71754;DHT22;59593;51.716;7.016;2023-03-22T17:07:31;13.40;99.90
71754;DHT22;59593;51.716;7.016;2023-03-22T17:09:58;13.30;99.90
71754;DHT22;59593;51.716;7.016;2023-03-22T17:12:27;13.40;99.90
71754;DHT22;59593;51.716;7.016;2023-03-22T17:14:55;13.40;99.90
71754;DHT22;59593;51.716;7.016;2023-03-22T17:17:20;13.50;99.90
71754;DHT22;59593;51.716;7.016;2023-03-22T17:19:47;13.40;99.90
71754;DHT22;59593;51.716;7.016;2023-03-22T17:22:14;13.40;99.90
71754;DHT22;59593;51.716;7.016;2023-03-22T17:24:41;13.40;99.90
71754;DHT22;59593;51.716;7.016;2023-03-22T17:27:09;13.40;99.90
71754;DHT22;59593;51.716;7.016;2023-03-22T17:29:36;13.40;99.90
71754;DHT22;59593;51.716;7.016;2023-03-22T17:32:04;13.40;99.90
71754;DHT22;59593;51.716;7.016;2023-03-22T17:34:30;13.40;99.90
71754;DHT22;59593;51.716;7.016;2023-03-22T17:36:58;13.30;99.90